Terminal Aerodrome Forecast
Issued by NWS

Home | Current Version | Previous Version | Text Only | Print | Product List | Glossary On
Versions: 1 2 3 4 5 6 7 8 9 10 11 12 13 14 15 16
000
FTUS41 KCAR 240531
TAFHUL
TAF
KHUL 240531Z 2406/2506 22006KT P6SM BKN200 WS010/22035KT
     FM241400 24008G16KT P6SM BKN200
     FM242200 24006KT P6SM SCT100 BKN200=

USA.gov is the U.S. government's official web portal to all federal, state and local government web resources and services.